Time;durP1;ratioP1;P1;durP2;ratioP2;P2;SDS_P1;SDS_P2;PMS_P1;PMS_P2;Temp;Humidity;BMP_temperature;BMP_pressure;BME280_temperature;BME280_humidity;BME280_pressure;Samples;Min_cycle;Max_cycle;Signal;HPM_P1;HPM_P2
2020/12/24 00:01:41;;;;;;;6.68;2.83;;;;;;;20.88;51.39;99153.13;5013796;28;20042;-76
2020/12/24 00:04:07;;;;;;;4.93;2.10;;;;;;;20.88;51.41;99145.22;5013500;28;20045;-78
2020/12/24 00:06:32;;;;;;;5.93;2.38;;;;;;;20.89;51.38;99136.41;5014240;28;20034;-75
2020/12/24 00:08:57;;;;;;;5.00;2.28;;;;;;;20.86;51.50;99147.09;5013818;28;20483;-76
2020/12/24 00:11:24;;;;;;;7.05;2.60;;;;;;;20.87;51.19;99143.50;5012750;28;20109;-78
2020/12/24 00:13:49;;;;;;;5.32;2.35;;;;;;;20.85;51.29;99138.31;5005941;28;20441;-74
2020/12/24 00:16:15;;;;;;;5.00;2.40;;;;;;;20.85;51.45;99138.31;4993818;28;20038;-74
2020/12/24 00:18:40;;;;;;;6.97;3.08;;;;;;;20.84;51.39;99123.44;4993347;28;20038;-74
2020/12/24 00:21:09;;;;;;;4.95;2.40;;;;;;;20.83;51.22;99126.97;5005746;28;20042;-78
2020/12/24 00:23:35;;;;;;;7.57;2.47;;;;;;;20.82;51.24;99123.50;4998826;28;20033;-74
2020/12/24 00:26:02;;;;;;;5.72;2.78;;;;;;;20.82;51.35;99123.50;4993762;28;20034;-75
2020/12/24 00:28:28;;;;;;;4.82;2.20;;;;;;;20.81;51.16;99119.16;4994032;28;20088;-74
2020/12/24 00:30:53;;;;;;;5.45;2.55;;;;;;;20.81;51.19;99118.28;4993368;28;20038;-73
2020/12/24 00:33:18;;;;;;;5.40;2.58;;;;;;;20.81;51.20;99111.25;4993749;28;20065;-71
2020/12/24 00:35:44;;;;;;;5.45;2.25;;;;;;;20.80;51.31;99106.03;4993708;28;20561;-75
2020/12/24 00:38:09;;;;;;;8.20;2.60;;;;;;;20.80;51.30;99111.28;4992358;28;20030;-73
2020/12/24 00:40:34;;;;;;;7.97;2.65;;;;;;;20.79;51.31;99118.34;4993694;28;20443;-73
2020/12/24 00:43:00;;;;;;;4.78;2.17;;;;;;;20.81;51.16;99116.53;4993517;28;20031;-76
2020/12/24 00:45:25;;;;;;;6.85;2.17;;;;;;;20.81;51.21;99113.00;4993072;28;20084;-73
2020/12/24 00:47:50;;;;;;;5.55;2.22;;;;;;;20.78;51.17;99106.09;4993170;28;20092;-77
2020/12/24 00:50:16;;;;;;;6.15;2.70;;;;;;;20.80;51.16;99108.66;4975906;28;20034;-75
2020/12/24 00:52:41;;;;;;;5.45;2.22;;;;;;;20.80;51.10;99119.19;4993317;28;20050;-74
2020/12/24 00:55:07;;;;;;;5.35;2.05;;;;;;;20.79;50.96;99112.22;5008404;28;20070;-75
2020/12/24 00:57:32;;;;;;;6.43;2.42;;;;;;;20.80;50.90;99113.94;4993268;28;20491;-74
2020/12/24 00:59:57;;;;;;;4.95;1.73;;;;;;;20.80;50.94;99111.28;4992942;28;20101;-74
2020/12/24 01:02:23;;;;;;;6.05;1.90;;;;;;;20.80;50.97;99112.16;4991707;28;20031;-76
2020/12/24 01:04:48;;;;;;;5.95;2.00;;;;;;;20.78;50.95;99111.38;4993074;28;20039;-75
2020/12/24 01:07:14;;;;;;;5.28;2.10;;;;;;;20.79;50.95;99104.31;4992066;28;20101;-74
2020/12/24 01:09:39;;;;;;;4.85;2.20;;;;;;;20.77;51.00;99104.38;4993012;28;20034;-73
2020/12/24 01:12:05;;;;;;;5.05;2.03;;;;;;;20.75;51.07;99108.84;4991691;28;20046;-75
2020/12/24 01:14:30;;;;;;;5.32;2.00;;;;;;;20.74;51.10;99104.47;4992595;28;20117;-75
2020/12/24 01:16:56;;;;;;;3.92;1.70;;;;;;;20.75;51.04;99103.59;4992612;28;20030;-78
2020/12/24 01:19:21;;;;;;;5.80;1.83;;;;;;;20.77;50.96;99108.81;4994855;28;20092;-73
2020/12/24 01:21:47;;;;;;;4.60;2.15;;;;;;;20.76;51.23;99104.47;4995004;28;20038;-75
2020/12/24 01:24:13;;;;;;;6.47;2.55;;;;;;;20.76;51.00;99105.31;5012580;28;20042;-75
2020/12/24 01:26:45;;;;;;;6.97;2.15;;;;;;;20.75;51.06;99105.34;5012478;28;20113;-73
2020/12/24 01:29:10;;;;;;;4.53;1.88;;;;;;;20.76;50.90;99115.00;5012259;28;20042;-75
2020/12/24 01:31:36;;;;;;;5.72;2.53;;;;;;;20.74;51.06;99117.66;5012119;28;20049;-78
2020/12/24 01:34:01;;;;;;;6.55;2.10;;;;;;;20.75;50.87;99119.38;5011175;28;20042;-78
2020/12/24 01:36:26;;;;;;;6.72;2.13;;;;;;;20.74;51.02;99108.91;5010842;28;20548;-76
2020/12/24 01:38:52;;;;;;;4.38;1.65;;;;;;;20.75;50.99;99115.88;5012288;28;20517;-73
2020/12/24 01:41:17;;;;;;;6.20;2.13;;;;;;;20.73;50.98;99120.34;5010657;28;20037;-75
2020/12/24 01:43:43;;;;;;;6.75;1.98;;;;;;;20.74;50.78;99116.81;5011941;28;20038;-75
2020/12/24 01:46:09;;;;;;;5.20;1.83;;;;;;;20.73;50.78;99109.81;4993122;28;20096;-73
2020/12/24 01:48:35;;;;;;;6.10;2.03;;;;;;;20.73;50.76;99104.56;4992255;28;20068;-75
2020/12/24 02:08:22;;;;;;;3.95;1.73;;;;;;;20.68;50.62;99099.47;5011880;28;20038;-75
2020/12/24 02:10:48;;;;;;;3.80;1.60;;;;;;;20.69;50.60;99099.41;5010396;28;20112;-73
2020/12/24 02:13:13;;;;;;;5.10;1.65;;;;;;;20.68;50.70;99091.59;5007403;28;20101;-74
2020/12/24 02:15:39;;;;;;;3.75;1.50;;;;;;;20.67;50.68;99090.72;4992064;28;20045;-74
2020/12/24 02:18:04;;;;;;;5.55;1.85;;;;;;;20.68;50.62;99083.69;4991834;28;20061;-73
2020/12/24 02:20:29;;;;;;;4.80;2.03;;;;;;;20.68;50.83;99088.94;4991953;28;20491;-74
2020/12/24 02:22:55;;;;;;;6.20;2.00;;;;;;;20.68;50.64;99091.59;5011167;28;20033;-74
2020/12/24 02:25:20;;;;;;;7.53;2.42;;;;;;;20.68;51.04;99081.91;5031505;28;20041;-74
2020/12/24 02:27:46;;;;;;;4.57;1.65;;;;;;;20.68;50.75;99081.06;5031240;28;20033;-75
2020/12/24 02:30:11;;;;;;;5.22;1.98;;;;;;;20.68;50.64;99079.25;5029807;28;20107;-77
2020/12/24 02:32:37;;;;;;;8.90;1.80;;;;;;;20.67;50.68;99074.91;5031198;28;20113;-74
2020/12/24 02:35:03;;;;;;;4.72;1.45;;;;;;;20.66;50.65;99064.47;5034646;28;20048;-77
2020/12/24 02:37:28;;;;;;;4.05;1.48;;;;;;;20.66;50.59;99056.56;5035295;28;20052;-73
2020/12/24 02:39:54;;;;;;;4.53;1.67;;;;;;;20.67;50.72;99053.03;5035214;28;20037;-75
2020/12/24 02:42:19;;;;;;;3.78;1.35;;;;;;;20.67;50.57;99060.91;5034756;28;20048;-74
2020/12/24 02:44:45;;;;;;;3.33;1.95;;;;;;;20.67;50.76;99053.84;5026155;28;20112;-75
2020/12/24 02:47:10;;;;;;;4.13;1.33;;;;;;;20.66;50.73;99049.50;5015134;28;20030;-75
2020/12/24 02:49:36;;;;;;;6.40;1.90;;;;;;;20.65;50.60;99045.16;5013972;28;20041;-76
2020/12/24 02:52:02;;;;;;;5.95;2.13;;;;;;;20.65;50.64;99039.06;5006581;28;20495;-79
2020/12/24 02:54:27;;;;;;;5.53;1.77;;;;;;;20.65;50.68;99042.53;4995378;28;20087;-74
2020/12/24 02:56:53;;;;;;;6.03;1.70;;;;;;;20.65;50.51;99045.16;4993987;28;20499;-72
2020/12/24 02:59:18;;;;;;;5.05;1.58;;;;;;;20.68;50.47;99044.19;4995985;28;20117;-75
2020/12/24 03:01:43;;;;;;;2.78;1.38;;;;;;;20.68;50.50;99037.16;4995347;28;20039;-75
2020/12/24 03:04:09;;;;;;;5.85;2.33;;;;;;;20.67;50.51;99034.59;4995493;28;20038;-75
2020/12/24 03:06:34;;;;;;;4.38;1.60;;;;;;;20.66;50.69;99036.34;4995144;28;20034;-73
2020/12/24 03:09:00;;;;;;;3.65;1.60;;;;;;;20.66;50.57;99033.72;4995154;28;20098;-76
2020/12/24 03:11:25;;;;;;;3.53;1.50;;;;;;;20.66;50.66;99028.47;4995095;28;20034;-73
2020/12/24 03:13:50;;;;;;;4.30;1.75;;;;;;;20.66;50.54;99028.47;5002901;28;20105;-74
2020/12/24 03:16:16;;;;;;;3.75;1.80;;;;;;;20.66;50.52;99030.25;5013572;28;20511;-73
2020/12/24 03:18:41;;;;;;;5.43;1.73;;;;;;;20.66;50.46;99022.34;5014219;28;20103;-75
2020/12/24 03:21:07;;;;;;;4.47;1.58;;;;;;;20.65;50.57;99023.25;5002593;28;20038;-76
2020/12/24 03:23:33;;;;;;;3.40;1.25;;;;;;;20.67;50.45;99024.06;4995114;28;20044;-73
2020/12/24 03:25:58;;;;;;;5.72;2.03;;;;;;;20.67;50.33;99022.28;4994830;28;20039;-72
2020/12/24 03:28:24;;;;;;;5.13;2.28;;;;;;;20.67;50.55;99017.00;4995065;28;20057;-75
2020/12/24 03:30:49;;;;;;;4.95;1.58;;;;;;;20.66;50.33;99017.09;4994762;28;20054;-72
2020/12/24 03:33:15;;;;;;;5.10;1.75;;;;;;;20.65;50.38;99021.47;4995002;28;20035;-75
2020/12/24 03:35:40;;;;;;;4.00;1.23;;;;;;;20.62;50.53;99019.00;4994697;28;20131;-77
2020/12/24 03:38:05;;;;;;;4.80;1.80;;;;;;;20.64;50.46;99022.41;4994505;28;20038;-78
2020/12/24 03:40:31;;;;;;;4.35;1.50;;;;;;;20.65;50.48;99018.84;4994597;28;20035;-73
2020/12/24 03:42:56;;;;;;;5.68;1.80;;;;;;;20.63;50.43;99015.41;4994689;28;20073;-76
2020/12/24 03:45:22;;;;;;;5.88;1.77;;;;;;;20.63;50.43;99023.31;4994333;28;20045;-75
2020/12/24 03:47:48;;;;;;;5.75;1.20;;;;;;;20.67;50.40;99016.16;4994452;28;20042;-72
2020/12/24 03:50:13;;;;;;;4.80;2.03;;;;;;;20.66;50.24;99012.66;4993383;28;20027;-73
2020/12/24 03:52:39;;;;;;;3.97;1.48;;;;;;;20.64;50.45;99006.59;4993160;28;20030;-75
2020/12/24 03:55:04;;;;;;;4.60;1.55;;;;;;;20.64;50.24;99011.88;4994126;28;20033;-72
2020/12/24 03:57:30;;;;;;;5.70;1.75;;;;;;;20.63;50.47;99009.31;5009684;28;20038;-74
2020/12/24 03:59:55;;;;;;;3.92;1.55;;;;;;;20.64;50.44;99011.88;4993170;28;20121;-75
2020/12/24 04:02:20;;;;;;;4.25;1.80;;;;;;;20.62;50.39;99008.47;5028410;28;20038;-75
2020/12/24 04:04:46;;;;;;;6.80;2.13;;;;;;;20.64;50.26;99011.88;5033741;28;20037;-75
2020/12/24 04:07:11;;;;;;;4.55;1.73;;;;;;;20.63;50.46;99004.88;5032305;28;20061;-73
2020/12/24 04:09:36;;;;;;;3.90;1.10;;;;;;;20.62;50.36;99003.22;5033678;28;20041;-74
2020/12/24 04:12:02;;;;;;;3.50;1.40;;;;;;;20.63;50.41;99009.31;5033699;28;20722;-78
2020/12/24 04:14:27;;;;;;;6.78;1.52;;;;;;;20.64;50.20;99001.34;5018764;28;20029;-74
2020/12/24 04:16:53;;;;;;;5.15;1.60;;;;;;;20.65;50.41;99002.22;5013617;28;20061;-74
2020/12/24 04:19:18;;;;;;;4.13;1.50;;;;;;;20.65;50.17;99008.31;5013276;28;20035;-74
2020/12/24 04:21:44;;;;;;;4.88;1.45;;;;;;;20.64;50.19;99003.97;4996473;28;20038;-74
2020/12/24 04:24:09;;;;;;;4.85;1.73;;;;;;;20.64;50.25;99005.75;5013252;28;20101;-75
2020/12/24 04:26:34;;;;;;;4.20;1.45;;;;;;;20.65;50.14;99004.84;5013505;28;20031;-73
2020/12/24 04:29:00;;;;;;;3.42;1.25;;;;;;;20.65;50.21;98996.94;5013403;28;20137;-77
2020/12/24 04:31:25;;;;;;;2.72;1.27;;;;;;;20.64;50.29;98995.22;5013228;28;20057;-73
2020/12/24 04:33:51;;;;;;;4.45;1.60;;;;;;;20.64;49.99;98989.97;5013162;28;20034;-75
2020/12/24 04:36:16;;;;;;;2.97;1.45;;;;;;;20.63;49.97;98994.34;5011819;28;20050;-73
2020/12/24 04:38:42;;;;;;;3.30;1.55;;;;;;;20.66;50.01;98988.97;5011672;28;20124;-74
2020/12/24 04:41:10;;;;;;;3.28;1.45;;;;;;;20.64;50.07;98985.53;4995741;28;20587;-78
2020/12/24 04:43:37;;;;;;;3.00;1.40;;;;;;;20.64;50.11;98987.34;5011706;28;20034;-73
2020/12/24 04:46:06;;;;;;;3.83;1.75;;;;;;;20.63;50.21;98988.25;4995093;28;20038;-72
2020/12/24 04:48:31;;;;;;;2.92;1.20;;;;;;;20.63;50.22;98983.84;4993254;28;20042;-71
2020/12/24 04:51:00;;;;;;;4.72;1.00;;;;;;;20.63;50.22;98973.31;4993569;28;20153;-70
2020/12/24 04:53:25;;;;;;;4.70;1.42;;;;;;;20.62;50.20;98976.88;5012853;28;20037;-75
2020/12/24 04:55:53;;;;;;;2.65;1.10;;;;;;;20.62;50.16;98979.50;5011019;28;20099;-75
2020/12/24 04:58:20;;;;;;;3.72;1.15;;;;;;;20.62;50.09;98976.00;5012726;28;20034;-72
2020/12/24 05:00:47;;;;;;;3.67;1.20;;;;;;;20.63;49.92;98983.00;5012530;28;20034;-74
2020/12/24 05:03:13;;;;;;;4.63;1.73;;;;;;;20.63;50.05;98978.56;5012542;28;20030;-75
2020/12/24 05:05:39;;;;;;;3.20;1.00;;;;;;;20.62;49.88;98984.78;5012763;28;20046;-76
2020/12/24 05:08:06;;;;;;;2.88;1.25;;;;;;;20.62;50.00;98991.81;5012261;28;20064;-74
2020/12/24 05:10:33;;;;;;;2.80;1.33;;;;;;;20.60;50.01;98989.25;5012873;28;20025;-75
2020/12/24 05:13:00;;;;;;;2.50;0.90;;;;;;;20.62;50.02;98997.06;5011457;28;20038;-77
2020/12/24 05:15:31;;;;;;;2.22;0.82;;;;;;;20.60;50.15;98998.91;4993088;28;20376;-72
2020/12/24 05:18:23;;;;;;;2.22;0.85;;;;;;;20.60;50.02;99007.66;4992584;28;20034;-74
2020/12/24 05:20:49;;;;;;;3.10;1.45;;;;;;;20.59;50.06;99005.09;4989841;28;20047;-75
2020/12/24 05:23:17;;;;;;;4.57;1.23;;;;;;;20.59;50.10;98999.81;5002695;28;20053;-72
2020/12/24 05:25:44;;;;;;;3.88;1.10;;;;;;;20.58;49.93;98998.97;5011731;28;20034;-75
2020/12/24 05:28:27;;;;;;;3.92;1.33;;;;;;;20.58;50.10;99004.25;5010953;28;20042;-75
2020/12/24 05:30:53;;;;;;;2.45;1.10;;;;;;;20.58;49.88;99001.63;5011145;28;20045;-76
2020/12/24 05:33:29;;;;;;;3.15;1.05;;;;;;;20.57;49.97;99005.16;5011482;28;20109;-76
2020/12/24 05:36:20;;;;;;;3.13;1.05;;;;;;;20.59;49.95;98998.06;5011251;28;20457;-76
2020/12/24 05:38:48;;;;;;;2.30;1.42;;;;;;;20.60;49.95;99004.16;5026549;28;20113;-73
2020/12/24 05:41:30;;;;;;;3.50;0.93;;;;;;;20.60;49.83;99007.66;5011207;28;20030;-75
2020/12/24 05:44:05;;;;;;;1.30;0.60;;;;;;;20.60;49.81;99007.66;5009231;28;20037;-72
2020/12/24 05:46:43;;;;;;;1.70;0.60;;;;;;;20.60;49.88;99006.81;4991744;28;20034;-73
2020/12/24 05:49:22;;;;;;;1.00;0.63;;;;;;;20.60;49.77;98999.78;4991516;28;20116;-74
2020/12/24 05:51:52;;;;;;;2.35;0.70;;;;;;;20.60;49.70;98996.28;4998498;28;20458;-74
2020/12/24 05:54:19;;;;;;;3.00;1.17;;;;;;;20.61;49.98;98998.00;5011141;28;20042;-75
2020/12/24 05:56:45;;;;;;;3.38;1.10;;;;;;;20.61;49.82;99006.75;5011334;28;20107;-75
2020/12/24 05:59:18;;;;;;;2.03;1.00;;;;;;;20.59;49.90;99013.84;5010862;28;20044;-73
2020/12/24 06:02:13;;;;;;;1.48;0.75;;;;;;;20.59;49.73;99010.34;5010911;28;20029;-75
2020/12/24 06:04:47;;;;;;;1.63;0.75;;;;;;;20.59;49.78;99011.22;5010818;28;20392;-73
2020/12/24 06:07:18;;;;;;;2.17;0.82;;;;;;;20.60;49.79;99015.56;5009416;28;20056;-77
2020/12/24 06:09:44;;;;;;;3.00;1.15;;;;;;;20.61;49.62;99012.03;5009334;28;20093;-75
2020/12/24 06:12:18;;;;;;;2.72;0.80;;;;;;;20.58;49.85;99017.41;5011104;28;20113;-78
2020/12/24 06:14:47;;;;;;;3.15;1.00;;;;;;;20.59;49.73;99012.97;4994384;28;20039;-72
2020/12/24 06:17:14;;;;;;;1.63;0.70;;;;;;;20.59;49.79;99019.13;4991054;28;20057;-74
2020/12/24 06:19:40;;;;;;;1.55;0.90;;;;;;;20.59;49.71;99019.13;4968637;28;612548;-73
2020/12/24 06:22:07;;;;;;;1.83;0.80;;;;;;;20.60;49.82;99019.97;4995567;28;20038;-72
2020/12/24 06:24:37;;;;;;;1.55;0.82;;;;;;;20.61;49.58;99024.31;5011785;28;20030;-73
2020/12/24 06:27:07;;;;;;;1.63;0.70;;;;;;;20.59;49.80;99028.78;5011824;28;20038;-74
2020/12/24 06:29:36;;;;;;;2.13;0.88;;;;;;;20.57;49.73;99028.84;5011663;28;20096;-75
2020/12/24 06:32:03;;;;;;;3.30;1.00;;;;;;;20.59;49.57;99031.41;5011779;28;20034;-76
2020/12/24 06:34:30;;;;;;;1.77;0.82;;;;;;;20.60;49.65;99034.00;5011467;28;20495;-76
2020/12/24 06:36:56;;;;;;;2.72;0.93;;;;;;;20.59;49.57;99037.53;5011982;28;20395;-72
2020/12/24 06:39:43;;;;;;;1.27;0.57;;;;;;;20.57;49.60;99038.50;5012586;28;20473;-78
2020/12/24 06:42:36;;;;;;;1.92;0.77;;;;;;;20.57;49.58;99036.75;5012880;28;20034;-74
2020/12/24 06:45:21;;;;;;;3.05;1.10;;;;;;;20.56;49.84;99024.50;5008143;28;20049;-78
2020/12/24 06:48:11;;;;;;;1.85;0.90;;;;;;;20.56;49.77;99023.63;4994275;28;20491;-77
2020/12/24 06:50:42;;;;;;;1.38;0.60;;;;;;;20.58;49.44;99032.31;4991893;28;20057;-73
2020/12/24 06:53:24;;;;;;;1.13;0.60;;;;;;;20.56;49.74;99023.63;5025450;28;20029;-72
2020/12/24 06:56:14;;;;;;;1.55;0.70;;;;;;;20.57;49.61;99035.88;5011285;28;20026;-79
2020/12/24 06:58:51;;;;;;;2.13;1.02;;;;;;;20.57;49.70;99039.38;5011410;28;20034;-73
2020/12/24 07:01:22;;;;;;;1.85;0.93;;;;;;;20.56;49.59;99045.56;5026530;28;20122;-72
2020/12/24 07:03:49;;;;;;;1.70;0.88;;;;;;;20.56;49.45;99042.94;5010994;28;20478;-73
2020/12/24 07:06:40;;;;;;;1.42;0.70;;;;;;;20.56;49.67;99050.81;5010919;28;20045;-73
2020/12/24 07:09:06;;;;;;;2.00;0.68;;;;;;;20.57;49.48;99057.81;5011261;28;20038;-78
2020/12/24 07:11:44;;;;;;;2.17;0.88;;;;;;;20.56;49.67;99055.22;5011482;28;20030;-74
2020/12/24 07:14:29;;;;;;;2.65;1.08;;;;;;;20.54;49.69;99055.28;5000369;28;20033;-74
2020/12/24 07:16:56;;;;;;;2.00;0.77;;;;;;;20.56;49.47;99066.63;4991278;28;20035;-74
2020/12/24 07:19:22;;;;;;;3.47;1.17;;;;;;;20.56;49.64;99071.00;4991926;28;20136;-75
2020/12/24 07:21:50;;;;;;;2.00;0.77;;;;;;;20.57;49.41;99073.59;5025914;28;20034;-75
2020/12/24 07:24:29;;;;;;;2.45;0.80;;;;;;;20.55;49.51;99088.59;5013231;28;20033;-75
2020/12/24 07:26:56;;;;;;;2.60;0.90;;;;;;;20.56;49.41;99087.66;5014774;28;20578;-73
2020/12/24 07:29:24;;;;;;;1.88;0.82;;;;;;;20.57;49.59;99089.38;5014643;28;20030;-73
2020/12/24 07:31:50;;;;;;;2.78;1.13;;;;;;;20.60;49.41;99104.19;5013635;28;20038;-74
2020/12/24 07:34:27;;;;;;;2.28;0.80;;;;;;;20.60;49.35;99102.44;5012311;28;20033;-77
2020/12/24 07:36:52;;;;;;;2.35;0.82;;;;;;;20.66;49.27;99114.47;5011328;28;20076;-74
2020/12/24 07:39:18;;;;;;;3.13;0.75;;;;;;;20.65;49.40;99115.41;5012330;28;20085;-71
2020/12/24 07:41:44;;;;;;;2.35;0.88;;;;;;;20.66;49.19;99117.94;5006032;28;20029;-75
2020/12/24 07:44:14;;;;;;;3.83;0.70;;;;;;;20.66;49.33;99120.59;4998813;28;20049;-75
2020/12/24 07:46:39;;;;;;;1.25;0.55;;;;;;;20.68;49.32;99120.53;5000841;28;20027;-74
2020/12/24 07:49:05;;;;;;;4.07;1.33;;;;;;;20.67;49.18;99130.19;4994461;28;20475;-79
2020/12/24 07:51:32;;;;;;;3.58;1.20;;;;;;;20.67;49.41;99130.19;4994925;28;20085;-75
2020/12/24 07:54:09;;;;;;;5.28;1.40;;;;;;;20.66;49.48;99131.13;5006143;28;20046;-74
2020/12/24 07:56:36;;;;;;;3.90;1.50;;;;;;;20.69;49.42;99128.38;5011090;28;20068;-73
2020/12/24 07:59:03;;;;;;;3.08;1.02;;;;;;;20.70;49.55;99131.88;5006218;28;20034;-78
2020/12/24 08:01:29;;;;;;;7.93;1.23;;;;;;;20.71;49.32;99140.59;4994302;28;20046;-77
2020/12/24 08:04:05;;;;;;;8.10;1.77;;;;;;;20.70;49.41;99147.66;5004323;28;20036;-77
2020/12/24 08:06:35;;;;;;;4.78;1.60;;;;;;;20.69;49.35;99144.16;5000204;28;20083;-73
2020/12/24 08:09:14;;;;;;;2.97;1.00;;;;;;;20.72;49.30;99148.44;5002891;28;20120;-76
2020/12/24 08:11:41;;;;;;;3.42;1.45;;;;;;;20.80;49.30;99153.41;4997665;28;20037;-74
2020/12/24 08:14:07;;;;;;;2.97;1.10;;;;;;;20.83;49.30;99159.44;5002298;28;20034;-81
2020/12/24 08:16:35;;;;;;;6.68;1.27;;;;;;;20.80;49.42;99163.94;4995322;28;20104;-73
2020/12/24 08:19:16;;;;;;;6.97;2.15;;;;;;;20.80;49.44;99158.69;4994412;28;20136;-73
2020/12/24 08:21:56;;;;;;;7.00;1.23;;;;;;;20.77;49.53;99161.47;5001695;28;20117;-76
2020/12/24 08:24:23;;;;;;;11.40;1.50;;;;;;;20.78;49.71;99166.66;5005743;28;20038;-73
2020/12/24 08:26:49;;;;;;;12.30;2.20;;;;;;;20.81;49.39;99179.72;5012165;28;20046;-72
2020/12/24 08:29:15;;;;;;;9.80;1.48;;;;;;;20.82;49.36;99172.66;5013342;28;20388;-76
2020/12/24 08:31:42;;;;;;;10.63;2.45;;;;;;;20.80;49.38;99178.00;5011681;28;20038;-76
2020/12/24 08:34:09;;;;;;;8.65;1.48;;;;;;;20.77;49.35;99180.75;5013733;28;20038;-74
2020/12/24 08:36:48;;;;;;;6.22;1.88;;;;;;;20.79;49.20;99185.94;5029151;28;20483;-73
2020/12/24 08:39:16;;;;;;;6.95;1.55;;;;;;;20.82;49.17;99178.78;5013698;28;20037;-73
2020/12/24 08:41:45;;;;;;;5.65;1.65;;;;;;;20.87;49.02;99190.91;5005644;28;20035;-73
2020/12/24 08:44:16;;;;;;;5.00;1.38;;;;;;;20.84;48.92;99192.75;4993484;28;20050;-80
2020/12/24 08:46:42;;;;;;;6.72;1.70;;;;;;;20.84;49.11;99194.50;4993822;28;20038;-72
2020/12/24 08:49:24;;;;;;;4.63;1.55;;;;;;;20.80;49.02;99199.06;4993380;28;20050;-76
2020/12/24 08:52:17;;;;;;;4.10;1.55;;;;;;;20.80;49.10;99206.97;5001292;28;20029;-73
2020/12/24 08:54:59;;;;;;;13.32;1.63;;;;;;;20.78;49.11;99207.94;5013123;28;20044;-73
2020/12/24 08:57:25;;;;;;;4.20;1.40;;;;;;;20.79;49.11;99210.50;5014453;28;20123;-72
2020/12/24 08:59:58;;;;;;;5.20;1.55;;;;;;;20.75;49.00;99213.28;5013086;28;20080;-75
2020/12/24 09:02:34;;;;;;;9.85;2.20;;;;;;;20.71;49.05;99216.97;5012886;28;20408;-75
2020/12/24 09:05:01;;;;;;;7.25;1.20;;;;;;;20.72;49.11;99216.03;5012886;28;20049;-74
2020/12/24 09:07:29;;;;;;;6.25;1.70;;;;;;;20.71;48.83;99219.59;5012891;28;20064;-74
2020/12/24 09:10:05;;;;;;;5.72;1.50;;;;;;;20.67;48.99;99227.59;5012986;28;20108;-72
2020/12/24 09:12:30;;;;;;;5.47;1.45;;;;;;;20.69;49.03;99231.03;5011731;28;20030;-73
2020/12/24 09:15:09;;;;;;;7.45;1.42;;;;;;;20.67;48.81;99238.13;5012624;28;20398;-74
2020/12/24 09:17:35;;;;;;;7.28;1.83;;;;;;;20.69;48.84;99240.72;5011191;28;20030;-74
2020/12/24 09:20:11;;;;;;;3.97;1.20;;;;;;;20.67;48.91;99242.56;5009425;28;20049;-72
2020/12/24 09:22:47;;;;;;;5.43;1.65;;;;;;;20.69;48.71;99251.25;5005558;28;20491;-72
2020/12/24 09:25:12;;;;;;;5.28;1.65;;;;;;;20.68;48.67;99257.44;5032431;28;20051;-76
2020/12/24 09:27:44;;;;;;;4.38;1.42;;;;;;;20.65;48.90;99255.75;5032034;28;20041;-74
2020/12/24 09:30:09;;;;;;;4.70;1.88;;;;;;;20.64;48.93;99261.94;5032445;28;20037;-75
2020/12/24 09:32:35;;;;;;;8.15;1.92;;;;;;;20.66;48.59;99275.91;5032235;28;20040;-73
2020/12/24 09:35:00;;;;;;;7.40;1.80;;;;;;;20.66;48.55;99282.94;5032185;28;20070;-72
2020/12/24 09:37:25;;;;;;;2.78;1.10;;;;;;;20.66;48.61;99290.84;5032429;28;20064;-72
2020/12/24 09:39:51;;;;;;;3.22;1.48;;;;;;;20.65;48.50;99287.34;5032258;28;20398;-71
2020/12/24 09:42:16;;;;;;;3.97;1.50;;;;;;;20.66;48.55;99291.69;5031718;28;20033;-73
2020/12/24 09:44:41;;;;;;;5.60;1.45;;;;;;;20.67;48.48;99290.78;5017986;28;20089;-75
2020/12/24 09:47:07;;;;;;;4.03;1.38;;;;;;;20.66;48.47;99304.00;4992695;28;20066;-75
2020/12/24 09:49:32;;;;;;;3.67;1.25;;;;;;;20.63;48.51;99315.50;4992284;28;20085;-75
2020/12/24 09:51:59;;;;;;;5.05;2.17;;;;;;;20.64;48.58;99330.38;4992661;28;20436;-74
2020/12/24 09:54:25;;;;;;;3.83;1.70;;;;;;;20.65;48.44;99344.41;4992671;28;20080;-73
2020/12/24 09:56:50;;;;;;;2.75;1.42;;;;;;;20.64;48.50;99359.31;4992160;28;20026;-74
2020/12/24 09:59:15;;;;;;;6.18;1.60;;;;;;;20.64;48.46;99374.28;4992533;28;20052;-75
2020/12/24 10:01:40;;;;;;;3.70;1.52;;;;;;;20.65;48.40;99389.16;4991377;28;20437;-76
2020/12/24 10:04:06;;;;;;;3.88;1.70;;;;;;;20.64;48.42;99395.34;4992313;28;20027;-77
2020/12/24 10:06:31;;;;;;;4.40;1.50;;;;;;;20.64;48.10;99396.19;5007731;28;20050;-76
2020/12/24 10:08:57;;;;;;;4.22;1.23;;;;;;;20.62;48.35;99403.31;4992571;28;20034;-74
2020/12/24 10:11:22;;;;;;;3.92;1.20;;;;;;;20.63;48.35;99418.16;4991977;28;20026;-74
2020/12/24 10:13:47;;;;;;;3.13;1.20;;;;;;;20.65;48.43;99418.13;4992356;28;20157;-73
2020/12/24 10:16:13;;;;;;;4.25;1.40;;;;;;;20.62;48.22;99437.53;4992490;28;20030;-74
2020/12/24 10:18:38;;;;;;;2.88;1.20;;;;;;;20.62;48.24;99444.53;4990844;28;20066;-73
2020/12/24 10:21:04;;;;;;;3.58;1.38;;;;;;;20.63;48.10;99447.09;4992020;28;20081;-74
2020/12/24 10:23:29;;;;;;;5.43;1.75;;;;;;;20.61;48.15;99454.22;5019070;28;20033;-74
2020/12/24 10:25:55;;;;;;;2.22;1.30;;;;;;;20.61;48.26;99458.63;5031612;28;20066;-75
2020/12/24 10:28:20;;;;;;;1.95;0.95;;;;;;;20.61;48.23;99467.38;5030497;28;20117;-72
2020/12/24 10:30:46;;;;;;;3.53;1.42;;;;;;;20.61;47.97;99482.31;5031527;28;20036;-73
2020/12/24 10:33:11;;;;;;;1.70;0.82;;;;;;;20.60;48.11;99488.47;5031621;28;20107;-75
2020/12/24 10:35:40;;;;;;;2.22;1.00;;;;;;;20.59;48.20;99490.28;5031564;28;20494;-75
2020/12/24 10:38:05;;;;;;;1.67;1.00;;;;;;;20.57;48.00;99494.72;5030455;28;20084;-74
2020/12/24 10:40:31;;;;;;;1.52;0.90;;;;;;;20.56;48.28;99507.91;5031328;28;20449;-75
2020/12/24 10:42:58;;;;;;;1.83;0.90;;;;;;;20.57;48.02;99515.78;5031472;28;20034;-73
2020/12/24 10:45:25;;;;;;;1.20;0.65;;;;;;;20.58;47.86;99522.75;5006148;28;20073;-75
2020/12/24 10:47:51;;;;;;;7.15;1.10;;;;;;;20.56;48.02;99521.97;4991879;28;20043;-72
2020/12/24 10:50:16;;;;;;;1.75;0.88;;;;;;;20.56;47.79;99526.34;4992275;28;20042;-73
2020/12/24 10:52:42;;;;;;;1.27;0.75;;;;;;;20.57;48.03;99536.84;4992086;28;20042;-76
2020/12/24 10:55:08;;;;;;;1.80;1.10;;;;;;;20.56;47.80;99547.41;4994334;28;20169;-74
2020/12/24 10:57:33;;;;;;;1.25;0.65;;;;;;;20.53;47.83;99553.63;4995905;28;20152;-72
2020/12/24 10:59:59;;;;;;;2.00;0.73;;;;;;;20.54;47.72;99560.63;4996570;28;20045;-75
2020/12/24 11:02:24;;;;;;;0.65;0.57;;;;;;;20.53;47.71;99556.28;4997539;28;20062;-75
2020/12/24 11:04:49;;;;;;;1.25;0.70;;;;;;;20.52;47.98;99570.34;4998210;28;20034;-75
2020/12/24 11:07:15;;;;;;;1.02;0.63;;;;;;;20.53;47.83;99574.69;5000278;28;20089;-73
2020/12/24 11:09:40;;;;;;;0.85;0.50;;;;;;;20.56;47.75;99578.97;4995386;28;20454;-71
2020/12/24 11:12:05;;;;;;;1.52;0.70;;;;;;;20.56;47.66;99593.03;4995773;28;20065;-72
2020/12/24 11:14:33;;;;;;;1.40;0.73;;;;;;;20.54;47.70;99584.31;4995651;28;20038;-74
2020/12/24 11:16:59;;;;;;;0.80;0.55;;;;;;;20.56;47.43;99585.13;4995394;28;20048;-75
2020/12/24 11:19:25;;;;;;;0.75;0.40;;;;;;;20.54;47.51;99600.97;4994963;28;20050;-75
2020/12/24 11:21:52;;;;;;;1.27;0.60;;;;;;;20.54;47.45;99589.56;4995291;28;20042;-73
2020/12/24 11:24:17;;;;;;;0.98;0.68;;;;;;;20.57;47.28;99599.13;4995214;28;20466;-74
2020/12/24 11:26:42;;;;;;;0.95;0.63;;;;;;;20.54;47.21;99597.47;4995228;28;20113;-73
2020/12/24 11:29:08;;;;;;;0.73;0.57;;;;;;;20.53;47.36;99601.00;4995328;28;20043;-73
2020/12/24 11:31:36;;;;;;;0.75;0.57;;;;;;;20.52;47.32;99597.53;4995136;28;20058;-76
2020/12/24 11:34:01;;;;;;;2.25;0.80;;;;;;;20.53;47.18;99599.25;4993971;28;20034;-73
2020/12/24 11:36:27;;;;;;;0.65;0.47;;;;;;;20.49;47.40;99604.66;4995101;28;20065;-76
2020/12/24 11:38:54;;;;;;;0.82;0.60;;;;;;;20.49;47.39;99604.66;4994751;28;20035;-75
2020/12/24 11:41:22;;;;;;;1.63;0.70;;;;;;;20.49;47.09;99616.06;4993528;28;20034;-74
2020/12/24 11:43:48;;;;;;;1.50;0.65;;;;;;;20.47;47.14;99623.13;4994817;28;20479;-76
2020/12/24 11:46:14;;;;;;;1.30;0.90;;;;;;;20.46;47.25;99625.81;5014201;28;20041;-73
2020/12/24 11:48:40;;;;;;;8.15;5.20;;;;;;;20.47;47.04;99625.75;5014040;28;20049;-76
2020/12/24 11:51:11;;;;;;;13.93;8.02;;;;;;;20.46;47.09;99629.31;5011628;28;20038;-74
2020/12/24 11:53:36;;;;;;;21.27;11.82;;;;;;;20.43;47.08;99639.06;4991899;28;20049;-74
2020/12/24 11:56:03;;;;;;;24.92;13.00;;;;;;;20.42;46.91;99632.94;4991985;28;20802;-77